sensor_id;sensor_type;location;lat;lon;timestamp;P1;durP1;ratioP1;P2;durP2;ratioP2
62543;SDS011;48597;49.030;1.822;2023-05-09T00:02:07;1.00;;;0.90;;
62543;SDS011;48597;49.030;1.822;2023-05-09T00:04:33;0.80;;;0.80;;
62543;SDS011;48597;49.030;1.822;2023-05-09T00:06:59;0.80;;;0.80;;
62543;SDS011;48597;49.030;1.822;2023-05-09T00:09:25;1.10;;;0.95;;
62543;SDS011;48597;49.030;1.822;2023-05-09T00:11:51;1.05;;;0.82;;
62543;SDS011;48597;49.030;1.822;2023-05-09T00:14:16;0.95;;;0.80;;
62543;SDS011;48597;49.030;1.822;2023-05-09T00:16:42;1.00;;;0.90;;
62543;SDS011;48597;49.030;1.822;2023-05-09T00:19:08;0.77;;;0.77;;
62543;SDS011;48597;49.030;1.822;2023-05-09T00:21:34;0.88;;;0.77;;
62543;SDS011;48597;49.030;1.822;2023-05-09T00:23:59;1.60;;;0.90;;
62543;SDS011;48597;49.030;1.822;2023-05-09T00:26:25;0.95;;;0.90;;
62543;SDS011;48597;49.030;1.822;2023-05-09T00:28:51;1.05;;;0.80;;
62543;SDS011;48597;49.030;1.822;2023-05-09T00:31:16;0.82;;;0.80;;
62543;SDS011;48597;49.030;1.822;2023-05-09T00:33:41;0.82;;;0.82;;
62543;SDS011;48597;49.030;1.822;2023-05-09T00:36:07;0.82;;;0.75;;
62543;SDS011;48597;49.030;1.822;2023-05-09T00:38:32;1.15;;;1.00;;
62543;SDS011;48597;49.030;1.822;2023-05-09T00:40:58;1.33;;;1.05;;
62543;SDS011;48597;49.030;1.822;2023-05-09T00:43:23;1.10;;;0.90;;
62543;SDS011;48597;49.030;1.822;2023-05-09T00:45:48;0.80;;;0.80;;
62543;SDS011;48597;49.030;1.822;2023-05-09T00:48:14;1.02;;;0.90;;
62543;SDS011;48597;49.030;1.822;2023-05-09T00:50:40;0.95;;;0.90;;
62543;SDS011;48597;49.030;1.822;2023-05-09T00:53:06;0.98;;;0.80;;
62543;SDS011;48597;49.030;1.822;2023-05-09T00:55:32;1.67;;;0.90;;
62543;SDS011;48597;49.030;1.822;2023-05-09T00:57:58;1.20;;;0.88;;
62543;SDS011;48597;49.030;1.822;2023-05-09T01:00:23;0.95;;;0.88;;
62543;SDS011;48597;49.030;1.822;2023-05-09T01:02:50;0.80;;;0.80;;
62543;SDS011;48597;49.030;1.822;2023-05-09T01:05:18;1.02;;;0.80;;
62543;SDS011;48597;49.030;1.822;2023-05-09T01:10:31;0.80;;;0.80;;
62543;SDS011;48597;49.030;1.822;2023-05-09T01:15:47;0.82;;;0.82;;
62543;SDS011;48597;49.030;1.822;2023-05-09T01:18:44;1.10;;;0.70;;
62543;SDS011;48597;49.030;1.822;2023-05-09T01:21:16;0.80;;;0.80;;
62543;SDS011;48597;49.030;1.822;2023-05-09T01:26:44;0.80;;;0.80;;
62543;SDS011;48597;49.030;1.822;2023-05-09T01:29:26;0.80;;;0.80;;
62543;SDS011;48597;49.030;1.822;2023-05-09T01:32:06;0.70;;;0.70;;
62543;SDS011;48597;49.030;1.822;2023-05-09T01:34:34;1.08;;;0.90;;
62543;SDS011;48597;49.030;1.822;2023-05-09T01:37:00;0.82;;;0.82;;
62543;SDS011;48597;49.030;1.822;2023-05-09T01:39:29;1.15;;;0.90;;
62543;SDS011;48597;49.030;1.822;2023-05-09T01:41:58;0.98;;;0.85;;
62543;SDS011;48597;49.030;1.822;2023-05-09T01:44:26;1.00;;;0.85;;
62543;SDS011;48597;49.030;1.822;2023-05-09T01:46:57;0.90;;;0.80;;
62543;SDS011;48597;49.030;1.822;2023-05-09T01:49:27;1.38;;;0.95;;
62543;SDS011;48597;49.030;1.822;2023-05-09T01:51:55;0.90;;;0.90;;
62543;SDS011;48597;49.030;1.822;2023-05-09T01:54:21;0.70;;;0.70;;
62543;SDS011;48597;49.030;1.822;2023-05-09T01:56:50;0.80;;;0.80;;
62543;SDS011;48597;49.030;1.822;2023-05-09T01:59:16;0.80;;;0.80;;
62543;SDS011;48597;49.030;1.822;2023-05-09T02:01:43;0.82;;;0.80;;
62543;SDS011;48597;49.030;1.822;2023-05-09T02:04:10;1.02;;;0.88;;
62543;SDS011;48597;49.030;1.822;2023-05-09T02:06:37;1.00;;;0.90;;
62543;SDS011;48597;49.030;1.822;2023-05-09T02:09:03;0.90;;;0.90;;
62543;SDS011;48597;49.030;1.822;2023-05-09T02:11:28;0.73;;;0.73;;
62543;SDS011;48597;49.030;1.822;2023-05-09T02:13:54;0.80;;;0.77;;
62543;SDS011;48597;49.030;1.822;2023-05-09T02:16:19;0.88;;;0.80;;
62543;SDS011;48597;49.030;1.822;2023-05-09T02:18:45;0.70;;;0.70;;
62543;SDS011;48597;49.030;1.822;2023-05-09T02:21:11;0.75;;;0.75;;
62543;SDS011;48597;49.030;1.822;2023-05-09T02:23:36;1.80;;;0.90;;
62543;SDS011;48597;49.030;1.822;2023-05-09T02:26:02;1.30;;;1.20;;
62543;SDS011;48597;49.030;1.822;2023-05-09T02:28:27;1.00;;;0.90;;
62543;SDS011;48597;49.030;1.822;2023-05-09T02:30:54;0.73;;;0.73;;
62543;SDS011;48597;49.030;1.822;2023-05-09T02:33:22;0.70;;;0.70;;
62543;SDS011;48597;49.030;1.822;2023-05-09T02:35:48;0.95;;;0.80;;
62543;SDS011;48597;49.030;1.822;2023-05-09T02:38:15;0.80;;;0.80;;
62543;SDS011;48597;49.030;1.822;2023-05-09T02:40:42;0.73;;;0.70;;
62543;SDS011;48597;49.030;1.822;2023-05-09T02:43:08;0.80;;;0.80;;
62543;SDS011;48597;49.030;1.822;2023-05-09T02:45:34;0.70;;;0.70;;
62543;SDS011;48597;49.030;1.822;2023-05-09T02:48:00;0.75;;;0.70;;
62543;SDS011;48597;49.030;1.822;2023-05-09T02:50:25;1.23;;;0.73;;
62543;SDS011;48597;49.030;1.822;2023-05-09T02:52:51;1.40;;;0.80;;
62543;SDS011;48597;49.030;1.822;2023-05-09T02:55:16;0.77;;;0.77;;
62543;SDS011;48597;49.030;1.822;2023-05-09T02:57:41;0.90;;;0.90;;
62543;SDS011;48597;49.030;1.822;2023-05-09T03:00:08;1.00;;;0.80;;
62543;SDS011;48597;49.030;1.822;2023-05-09T03:02:34;0.80;;;0.80;;
62543;SDS011;48597;49.030;1.822;2023-05-09T03:05:03;0.80;;;0.73;;
62543;SDS011;48597;49.030;1.822;2023-05-09T03:07:28;1.00;;;0.90;;
62543;SDS011;48597;49.030;1.822;2023-05-09T03:09:54;1.38;;;0.90;;
62543;SDS011;48597;49.030;1.822;2023-05-09T03:12:20;0.90;;;0.90;;
62543;SDS011;48597;49.030;1.822;2023-05-09T03:14:45;0.68;;;0.68;;
62543;SDS011;48597;49.030;1.822;2023-05-09T03:17:11;0.93;;;0.70;;
62543;SDS011;48597;49.030;1.822;2023-05-09T03:19:36;0.75;;;0.73;;
62543;SDS011;48597;49.030;1.822;2023-05-09T03:22:01;0.90;;;0.73;;
62543;SDS011;48597;49.030;1.822;2023-05-09T03:24:27;0.80;;;0.80;;
62543;SDS011;48597;49.030;1.822;2023-05-09T03:26:52;0.80;;;0.80;;
62543;SDS011;48597;49.030;1.822;2023-05-09T03:29:18;0.65;;;0.65;;
62543;SDS011;48597;49.030;1.822;2023-05-09T03:31:43;0.70;;;0.70;;
62543;SDS011;48597;49.030;1.822;2023-05-09T03:34:10;0.77;;;0.70;;
62543;SDS011;48597;49.030;1.822;2023-05-09T03:36:40;0.90;;;0.90;;
62543;SDS011;48597;49.030;1.822;2023-05-09T03:39:07;0.80;;;0.80;;
62543;SDS011;48597;49.030;1.822;2023-05-09T03:41:34;0.75;;;0.75;;
62543;SDS011;48597;49.030;1.822;2023-05-09T03:44:00;0.70;;;0.70;;
62543;SDS011;48597;49.030;1.822;2023-05-09T03:46:26;1.10;;;0.80;;
62543;SDS011;48597;49.030;1.822;2023-05-09T03:48:51;0.73;;;0.60;;
62543;SDS011;48597;49.030;1.822;2023-05-09T03:51:16;0.98;;;0.80;;
62543;SDS011;48597;49.030;1.822;2023-05-09T03:53:44;0.73;;;0.70;;
62543;SDS011;48597;49.030;1.822;2023-05-09T03:56:10;1.02;;;0.98;;
62543;SDS011;48597;49.030;1.822;2023-05-09T03:58:35;0.93;;;0.73;;
62543;SDS011;48597;49.030;1.822;2023-05-09T04:01:00;1.02;;;0.93;;
62543;SDS011;48597;49.030;1.822;2023-05-09T04:03:26;1.00;;;0.77;;
62543;SDS011;48597;49.030;1.822;2023-05-09T04:05:52;0.80;;;0.80;;
62543;SDS011;48597;49.030;1.822;2023-05-09T04:08:17;0.93;;;0.60;;
62543;SDS011;48597;49.030;1.822;2023-05-09T04:10:43;0.70;;;0.70;;
62543;SDS011;48597;49.030;1.822;2023-05-09T04:13:08;0.68;;;0.68;;
62543;SDS011;48597;49.030;1.822;2023-05-09T04:15:35;0.93;;;0.75;;
62543;SDS011;48597;49.030;1.822;2023-05-09T04:18:00;0.80;;;0.80;;
62543;SDS011;48597;49.030;1.822;2023-05-09T04:20:26;0.73;;;0.73;;
62543;SDS011;48597;49.030;1.822;2023-05-09T04:22:51;1.00;;;0.90;;
62543;SDS011;48597;49.030;1.822;2023-05-09T04:25:17;1.02;;;0.90;;
62543;SDS011;48597;49.030;1.822;2023-05-09T04:27:44;1.05;;;0.70;;
62543;SDS011;48597;49.030;1.822;2023-05-09T04:30:09;0.70;;;0.70;;
62543;SDS011;48597;49.030;1.822;2023-05-09T04:32:35;1.02;;;0.73;;
62543;SDS011;48597;49.030;1.822;2023-05-09T04:35:00;0.80;;;0.80;;
62543;SDS011;48597;49.030;1.822;2023-05-09T04:37:27;0.63;;;0.63;;
62543;SDS011;48597;49.030;1.822;2023-05-09T04:39:53;0.80;;;0.80;;
62543;SDS011;48597;49.030;1.822;2023-05-09T04:42:18;1.13;;;0.90;;
62543;SDS011;48597;49.030;1.822;2023-05-09T04:44:43;0.82;;;0.80;;
62543;SDS011;48597;49.030;1.822;2023-05-09T04:47:09;0.95;;;0.77;;
62543;SDS011;48597;49.030;1.822;2023-05-09T04:49:34;0.70;;;0.70;;
62543;SDS011;48597;49.030;1.822;2023-05-09T04:51:59;0.85;;;0.80;;
62543;SDS011;48597;49.030;1.822;2023-05-09T04:54:25;1.48;;;0.80;;
62543;SDS011;48597;49.030;1.822;2023-05-09T04:56:50;1.05;;;0.70;;
62543;SDS011;48597;49.030;1.822;2023-05-09T04:59:16;1.00;;;0.75;;
62543;SDS011;48597;49.030;1.822;2023-05-09T05:01:42;0.70;;;0.70;;
62543;SDS011;48597;49.030;1.822;2023-05-09T05:04:07;0.77;;;0.75;;
62543;SDS011;48597;49.030;1.822;2023-05-09T05:06:32;0.77;;;0.70;;
62543;SDS011;48597;49.030;1.822;2023-05-09T05:08:58;0.93;;;0.73;;
62543;SDS011;48597;49.030;1.822;2023-05-09T05:11:23;0.70;;;0.70;;
62543;SDS011;48597;49.030;1.822;2023-05-09T05:13:49;1.23;;;0.98;;
62543;SDS011;48597;49.030;1.822;2023-05-09T05:16:14;1.05;;;0.80;;
62543;SDS011;48597;49.030;1.822;2023-05-09T05:18:39;1.08;;;0.60;;
62543;SDS011;48597;49.030;1.822;2023-05-09T05:21:05;2.25;;;0.80;;
62543;SDS011;48597;49.030;1.822;2023-05-09T05:23:30;1.58;;;0.80;;
62543;SDS011;48597;49.030;1.822;2023-05-09T05:25:55;1.00;;;0.80;;
62543;SDS011;48597;49.030;1.822;2023-05-09T05:28:21;1.15;;;0.80;;
62543;SDS011;48597;49.030;1.822;2023-05-09T05:30:46;1.55;;;0.90;;
62543;SDS011;48597;49.030;1.822;2023-05-09T05:33:12;0.77;;;0.70;;
62543;SDS011;48597;49.030;1.822;2023-05-09T05:35:37;2.17;;;0.88;;
62543;SDS011;48597;49.030;1.822;2023-05-09T05:38:02;1.83;;;0.80;;
62543;SDS011;48597;49.030;1.822;2023-05-09T05:40:28;1.13;;;0.90;;
62543;SDS011;48597;49.030;1.822;2023-05-09T05:42:54;0.77;;;0.75;;
62543;SDS011;48597;49.030;1.822;2023-05-09T05:45:19;0.93;;;0.70;;
62543;SDS011;48597;49.030;1.822;2023-05-09T05:47:45;1.48;;;0.90;;
62543;SDS011;48597;49.030;1.822;2023-05-09T05:50:10;0.82;;;0.70;;
62543;SDS011;48597;49.030;1.822;2023-05-09T05:52:38;1.02;;;0.70;;
62543;SDS011;48597;49.030;1.822;2023-05-09T05:55:05;1.10;;;1.02;;
62543;SDS011;48597;49.030;1.822;2023-05-09T05:57:31;0.93;;;0.80;;
62543;SDS011;48597;49.030;1.822;2023-05-09T05:59:58;1.92;;;0.70;;
62543;SDS011;48597;49.030;1.822;2023-05-09T06:02:23;1.15;;;0.80;;
62543;SDS011;48597;49.030;1.822;2023-05-09T06:04:49;0.77;;;0.70;;
62543;SDS011;48597;49.030;1.822;2023-05-09T06:07:14;0.70;;;0.70;;
62543;SDS011;48597;49.030;1.822;2023-05-09T06:09:40;1.48;;;0.80;;
62543;SDS011;48597;49.030;1.822;2023-05-09T06:12:05;0.93;;;0.80;;
62543;SDS011;48597;49.030;1.822;2023-05-09T06:14:31;0.80;;;0.80;;
62543;SDS011;48597;49.030;1.822;2023-05-09T06:16:57;1.40;;;0.82;;
62543;SDS011;48597;49.030;1.822;2023-05-09T06:19:22;1.05;;;0.65;;
62543;SDS011;48597;49.030;1.822;2023-05-09T06:21:48;1.35;;;0.70;;
62543;SDS011;48597;49.030;1.822;2023-05-09T06:24:13;1.15;;;0.70;;
62543;SDS011;48597;49.030;1.822;2023-05-09T06:26:38;1.52;;;0.75;;
62543;SDS011;48597;49.030;1.822;2023-05-09T06:29:04;0.95;;;0.80;;
62543;SDS011;48597;49.030;1.822;2023-05-09T06:31:30;1.83;;;0.80;;
62543;SDS011;48597;49.030;1.822;2023-05-09T06:33:56;2.45;;;0.80;;
62543;SDS011;48597;49.030;1.822;2023-05-09T06:36:21;1.38;;;0.77;;
62543;SDS011;48597;49.030;1.822;2023-05-09T06:38:46;0.82;;;0.70;;
62543;SDS011;48597;49.030;1.822;2023-05-09T06:41:12;0.75;;;0.75;;
62543;SDS011;48597;49.030;1.822;2023-05-09T06:43:37;1.17;;;0.70;;
62543;SDS011;48597;49.030;1.822;2023-05-09T06:46:02;1.20;;;0.80;;
62543;SDS011;48597;49.030;1.822;2023-05-09T06:48:28;1.67;;;0.70;;
62543;SDS011;48597;49.030;1.822;2023-05-09T06:50:53;0.80;;;0.80;;
62543;SDS011;48597;49.030;1.822;2023-05-09T06:53:19;0.80;;;0.70;;
62543;SDS011;48597;49.030;1.822;2023-05-09T06:55:44;1.67;;;1.13;;
62543;SDS011;48597;49.030;1.822;2023-05-09T06:58:10;0.70;;;0.70;;
62543;SDS011;48597;49.030;1.822;2023-05-09T07:00:36;0.63;;;0.60;;
62543;SDS011;48597;49.030;1.822;2023-05-09T07:03:01;0.70;;;0.68;;
62543;SDS011;48597;49.030;1.822;2023-05-09T07:05:27;1.00;;;0.60;;
62543;SDS011;48597;49.030;1.822;2023-05-09T07:07:52;0.65;;;0.65;;
62543;SDS011;48597;49.030;1.822;2023-05-09T07:10:20;0.70;;;0.70;;
62543;SDS011;48597;49.030;1.822;2023-05-09T07:12:46;0.77;;;0.75;;
62543;SDS011;48597;49.030;1.822;2023-05-09T07:15:11;0.93;;;0.82;;
62543;SDS011;48597;49.030;1.822;2023-05-09T07:17:37;1.73;;;0.80;;
62543;SDS011;48597;49.030;1.822;2023-05-09T07:20:02;0.63;;;0.63;;
62543;SDS011;48597;49.030;1.822;2023-05-09T07:22:28;0.82;;;0.82;;
62543;SDS011;48597;49.030;1.822;2023-05-09T07:24:54;1.55;;;0.70;;
62543;SDS011;48597;49.030;1.822;2023-05-09T07:27:19;0.75;;;0.55;;
62543;SDS011;48597;49.030;1.822;2023-05-09T07:29:45;1.30;;;0.60;;
62543;SDS011;48597;49.030;1.822;2023-05-09T07:32:10;0.68;;;0.68;;
62543;SDS011;48597;49.030;1.822;2023-05-09T07:34:35;0.70;;;0.70;;
62543;SDS011;48597;49.030;1.822;2023-05-09T07:37:01;1.13;;;0.80;;
62543;SDS011;48597;49.030;1.822;2023-05-09T07:39:26;1.00;;;0.80;;
62543;SDS011;48597;49.030;1.822;2023-05-09T07:41:51;0.70;;;0.70;;
62543;SDS011;48597;49.030;1.822;2023-05-09T07:44:17;1.00;;;0.63;;
62543;SDS011;48597;49.030;1.822;2023-05-09T07:46:42;1.00;;;0.75;;
62543;SDS011;48597;49.030;1.822;2023-05-09T07:49:07;0.60;;;0.60;;
62543;SDS011;48597;49.030;1.822;2023-05-09T07:51:33;1.30;;;0.65;;
62543;SDS011;48597;49.030;1.822;2023-05-09T07:53:58;0.95;;;0.77;;
62543;SDS011;48597;49.030;1.822;2023-05-09T07:56:24;0.70;;;0.70;;
62543;SDS011;48597;49.030;1.822;2023-05-09T07:58:50;0.68;;;0.68;;
62543;SDS011;48597;49.030;1.822;2023-05-09T08:01:16;0.80;;;0.70;;
62543;SDS011;48597;49.030;1.822;2023-05-09T08:03:41;0.60;;;0.60;;
62543;SDS011;48597;49.030;1.822;2023-05-09T08:06:06;0.82;;;0.80;;
62543;SDS011;48597;49.030;1.822;2023-05-09T08:08:32;0.93;;;0.80;;
62543;SDS011;48597;49.030;1.822;2023-05-09T08:10:57;0.68;;;0.68;;
62543;SDS011;48597;49.030;1.822;2023-05-09T08:13:23;0.50;;;0.50;;
62543;SDS011;48597;49.030;1.822;2023-05-09T08:15:48;1.00;;;0.90;;
62543;SDS011;48597;49.030;1.822;2023-05-09T08:18:14;1.75;;;0.80;;
62543;SDS011;48597;49.030;1.822;2023-05-09T08:20:39;0.80;;;0.70;;
62543;SDS011;48597;49.030;1.822;2023-05-09T08:23:05;0.73;;;0.70;;
62543;SDS011;48597;49.030;1.822;2023-05-09T08:25:31;0.68;;;0.68;;
62543;SDS011;48597;49.030;1.822;2023-05-09T08:27:56;1.38;;;0.60;;
62543;SDS011;48597;49.030;1.822;2023-05-09T08:30:22;0.80;;;0.80;;
62543;SDS011;48597;49.030;1.822;2023-05-09T08:32:47;0.60;;;0.60;;
62543;SDS011;48597;49.030;1.822;2023-05-09T08:35:12;0.77;;;0.60;;
62543;SDS011;48597;49.030;1.822;2023-05-09T08:37:38;0.70;;;0.70;;
62543;SDS011;48597;49.030;1.822;2023-05-09T08:40:03;0.75;;;0.75;;
62543;SDS011;48597;49.030;1.822;2023-05-09T08:42:33;0.60;;;0.50;;
62543;SDS011;48597;49.030;1.822;2023-05-09T08:45:00;0.60;;;0.60;;
62543;SDS011;48597;49.030;1.822;2023-05-09T08:47:33;0.82;;;0.65;;
62543;SDS011;48597;49.030;1.822;2023-05-09T08:50:01;0.88;;;0.60;;
62543;SDS011;48597;49.030;1.822;2023-05-09T08:52:28;1.00;;;0.65;;
62543;SDS011;48597;49.030;1.822;2023-05-09T08:54:55;0.63;;;0.60;;
62543;SDS011;48597;49.030;1.822;2023-05-09T08:57:21;0.60;;;0.60;;
62543;SDS011;48597;49.030;1.822;2023-05-09T08:59:47;0.73;;;0.73;;
62543;SDS011;48597;49.030;1.822;2023-05-09T09:02:13;0.55;;;0.55;;
62543;SDS011;48597;49.030;1.822;2023-05-09T09:04:39;0.90;;;0.85;;
62543;SDS011;48597;49.030;1.822;2023-05-09T09:07:04;0.60;;;0.60;;
62543;SDS011;48597;49.030;1.822;2023-05-09T09:09:31;0.95;;;0.73;;
62543;SDS011;48597;49.030;1.822;2023-05-09T09:11:59;0.82;;;0.63;;
62543;SDS011;48597;49.030;1.822;2023-05-09T09:14:27;0.50;;;0.50;;
62543;SDS011;48597;49.030;1.822;2023-05-09T09:16:55;0.60;;;0.60;;
62543;SDS011;48597;49.030;1.822;2023-05-09T09:19:23;0.70;;;0.70;;
62543;SDS011;48597;49.030;1.822;2023-05-09T09:21:53;0.70;;;0.70;;
62543;SDS011;48597;49.030;1.822;2023-05-09T09:24:23;0.70;;;0.55;;
62543;SDS011;48597;49.030;1.822;2023-05-09T09:26:49;2.10;;;0.68;;
62543;SDS011;48597;49.030;1.822;2023-05-09T09:29:15;0.73;;;0.60;;
62543;SDS011;48597;49.030;1.822;2023-05-09T09:31:43;0.70;;;0.70;;
62543;SDS011;48597;49.030;1.822;2023-05-09T09:34:11;0.60;;;0.60;;
62543;SDS011;48597;49.030;1.822;2023-05-09T09:36:41;0.82;;;0.60;;
62543;SDS011;48597;49.030;1.822;2023-05-09T09:39:06;0.60;;;0.60;;
62543;SDS011;48597;49.030;1.822;2023-05-09T09:41:36;0.80;;;0.75;;
62543;SDS011;48597;49.030;1.822;2023-05-09T09:44:09;0.40;;;0.40;;
62543;SDS011;48597;49.030;1.822;2023-05-09T09:46:52;0.50;;;0.50;;
62543;SDS011;48597;49.030;1.822;2023-05-09T09:49:19;0.90;;;0.75;;
62543;SDS011;48597;49.030;1.822;2023-05-09T09:51:53;0.60;;;0.50;;
62543;SDS011;48597;49.030;1.822;2023-05-09T09:54:19;0.50;;;0.50;;
62543;SDS011;48597;49.030;1.822;2023-05-09T09:56:48;0.60;;;0.60;;
62543;SDS011;48597;49.030;1.822;2023-05-09T09:59:18;0.57;;;0.50;;
62543;SDS011;48597;49.030;1.822;2023-05-09T10:02:04;0.60;;;0.60;;
62543;SDS011;48597;49.030;1.822;2023-05-09T10:04:32;0.55;;;0.50;;
62543;SDS011;48597;49.030;1.822;2023-05-09T10:07:03;0.65;;;0.60;;
62543;SDS011;48597;49.030;1.822;2023-05-09T10:09:31;0.50;;;0.50;;
62543;SDS011;48597;49.030;1.822;2023-05-09T10:12:02;0.88;;;0.60;;
62543;SDS011;48597;49.030;1.822;2023-05-09T10:14:30;0.40;;;0.40;;
62543;SDS011;48597;49.030;1.822;2023-05-09T10:16:56;0.40;;;0.40;;
62543;SDS011;48597;49.030;1.822;2023-05-09T10:19:24;0.68;;;0.60;;
62543;SDS011;48597;49.030;1.822;2023-05-09T10:21:52;0.77;;;0.60;;
62543;SDS011;48597;49.030;1.822;2023-05-09T10:24:27;0.60;;;0.60;;
62543;SDS011;48597;49.030;1.822;2023-05-09T10:27:01;1.00;;;0.60;;
62543;SDS011;48597;49.030;1.822;2023-05-09T10:29:37;0.45;;;0.45;;
62543;SDS011;48597;49.030;1.822;2023-05-09T10:35:06;0.52;;;0.52;;
62543;SDS011;48597;49.030;1.822;2023-05-09T10:37:34;0.50;;;0.50;;
62543;SDS011;48597;49.030;1.822;2023-05-09T10:40:02;0.40;;;0.40;;
62543;SDS011;48597;49.030;1.822;2023-05-09T10:42:29;0.40;;;0.40;;
62543;SDS011;48597;49.030;1.822;2023-05-09T10:44:55;0.50;;;0.50;;
62543;SDS011;48597;49.030;1.822;2023-05-09T10:47:22;0.40;;;0.40;;
62543;SDS011;48597;49.030;1.822;2023-05-09T10:49:50;0.50;;;0.50;;
62543;SDS011;48597;49.030;1.822;2023-05-09T10:52:16;0.50;;;0.50;;
62543;SDS011;48597;49.030;1.822;2023-05-09T10:54:43;0.60;;;0.57;;
62543;SDS011;48597;49.030;1.822;2023-05-09T10:57:08;0.63;;;0.50;;
62543;SDS011;48597;49.030;1.822;2023-05-09T10:59:40;0.55;;;0.40;;
62543;SDS011;48597;49.030;1.822;2023-05-09T11:02:18;0.90;;;0.60;;
62543;SDS011;48597;49.030;1.822;2023-05-09T11:04:44;0.47;;;0.47;;
62543;SDS011;48597;49.030;1.822;2023-05-09T11:07:25;0.38;;;0.38;;
62543;SDS011;48597;49.030;1.822;2023-05-09T11:09:51;0.40;;;0.40;;
62543;SDS011;48597;49.030;1.822;2023-05-09T11:12:30;0.40;;;0.40;;
62543;SDS011;48597;49.030;1.822;2023-05-09T11:14:56;0.80;;;0.43;;
62543;SDS011;48597;49.030;1.822;2023-05-09T11:17:29;0.40;;;0.40;;
62543;SDS011;48597;49.030;1.822;2023-05-09T11:20:00;0.60;;;0.55;;
62543;SDS011;48597;49.030;1.822;2023-05-09T11:22:30;0.60;;;0.60;;
62543;SDS011;48597;49.030;1.822;2023-05-09T11:25:03;0.45;;;0.45;;
62543;SDS011;48597;49.030;1.822;2023-05-09T11:27:37;0.57;;;0.40;;
62543;SDS011;48597;49.030;1.822;2023-05-09T11:30:08;0.32;;;0.32;;
62543;SDS011;48597;49.030;1.822;2023-05-09T11:35:14;0.50;;;0.50;;
62543;SDS011;48597;49.030;1.822;2023-05-09T11:40:15;0.50;;;0.50;;
62543;SDS011;48597;49.030;1.822;2023-05-09T11:42:42;0.45;;;0.45;;
62543;SDS011;48597;49.030;1.822;2023-05-09T11:45:10;0.50;;;0.50;;
62543;SDS011;48597;49.030;1.822;2023-05-09T11:47:36;0.60;;;0.60;;
62543;SDS011;48597;49.030;1.822;2023-05-09T11:50:06;0.40;;;0.40;;
62543;SDS011;48597;49.030;1.822;2023-05-09T11:52:36;0.95;;;0.50;;
62543;SDS011;48597;49.030;1.822;2023-05-09T11:55:08;0.40;;;0.40;;
62543;SDS011;48597;49.030;1.822;2023-05-09T11:57:53;0.40;;;0.40;;
62543;SDS011;48597;49.030;1.822;2023-05-09T12:00:19;0.40;;;0.40;;
62543;SDS011;48597;49.030;1.822;2023-05-09T12:02:47;0.50;;;0.50;;
62543;SDS011;48597;49.030;1.822;2023-05-09T12:05:13;0.40;;;0.40;;
62543;SDS011;48597;49.030;1.822;2023-05-09T12:07:40;0.70;;;0.40;;
62543;SDS011;48597;49.030;1.822;2023-05-09T12:12:40;0.40;;;0.40;;
62543;SDS011;48597;49.030;1.822;2023-05-09T12:15:16;0.43;;;0.43;;
62543;SDS011;48597;49.030;1.822;2023-05-09T12:17:42;0.40;;;0.40;;
62543;SDS011;48597;49.030;1.822;2023-05-09T12:20:08;0.32;;;0.32;;
62543;SDS011;48597;49.030;1.822;2023-05-09T12:22:35;0.85;;;0.50;;
62543;SDS011;48597;49.030;1.822;2023-05-09T12:25:05;0.40;;;0.40;;
62543;SDS011;48597;49.030;1.822;2023-05-09T12:27:33;0.40;;;0.40;;
62543;SDS011;48597;49.030;1.822;2023-05-09T12:29:59;0.40;;;0.40;;
62543;SDS011;48597;49.030;1.822;2023-05-09T12:32:25;1.10;;;0.40;;
62543;SDS011;48597;49.030;1.822;2023-05-09T12:34:56;0.43;;;0.43;;
62543;SDS011;48597;49.030;1.822;2023-05-09T12:37:23;1.77;;;0.65;;
62543;SDS011;48597;49.030;1.822;2023-05-09T12:39:59;0.40;;;0.40;;
62543;SDS011;48597;49.030;1.822;2023-05-09T12:42:34;0.50;;;0.50;;
62543;SDS011;48597;49.030;1.822;2023-05-09T12:45:00;0.30;;;0.30;;
62543;SDS011;48597;49.030;1.822;2023-05-09T12:47:30;0.77;;;0.40;;
62543;SDS011;48597;49.030;1.822;2023-05-09T12:49:56;0.40;;;0.40;;
62543;SDS011;48597;49.030;1.822;2023-05-09T12:52:36;0.40;;;0.40;;
62543;SDS011;48597;49.030;1.822;2023-05-09T12:55:09;0.47;;;0.40;;
62543;SDS011;48597;49.030;1.822;2023-05-09T12:57:36;0.50;;;0.45;;
62543;SDS011;48597;49.030;1.822;2023-05-09T13:00:03;1.48;;;0.55;;
62543;SDS011;48597;49.030;1.822;2023-05-09T13:02:33;0.30;;;0.30;;
62543;SDS011;48597;49.030;1.822;2023-05-09T13:05:13;0.57;;;0.50;;
62543;SDS011;48597;49.030;1.822;2023-05-09T13:07:46;0.30;;;0.30;;
62543;SDS011;48597;49.030;1.822;2023-05-09T13:10:14;0.60;;;0.40;;
62543;SDS011;48597;49.030;1.822;2023-05-09T13:12:45;0.30;;;0.30;;
62543;SDS011;48597;49.030;1.822;2023-05-09T13:15:16;1.08;;;0.52;;
62543;SDS011;48597;49.030;1.822;2023-05-09T13:17:48;0.43;;;0.43;;
62543;SDS011;48597;49.030;1.822;2023-05-09T13:20:15;0.40;;;0.40;;
62543;SDS011;48597;49.030;1.822;2023-05-09T13:22:40;1.98;;;0.55;;
62543;SDS011;48597;49.030;1.822;2023-05-09T13:25:08;0.60;;;0.60;;
62543;SDS011;48597;49.030;1.822;2023-05-09T13:27:33;0.73;;;0.30;;
62543;SDS011;48597;49.030;1.822;2023-05-09T13:29:59;1.52;;;0.50;;
62543;SDS011;48597;49.030;1.822;2023-05-09T13:32:24;0.50;;;0.50;;
62543;SDS011;48597;49.030;1.822;2023-05-09T13:34:50;1.08;;;0.40;;
62543;SDS011;48597;49.030;1.822;2023-05-09T13:37:16;0.85;;;0.68;;
62543;SDS011;48597;49.030;1.822;2023-05-09T13:39:41;0.45;;;0.40;;
62543;SDS011;48597;49.030;1.822;2023-05-09T13:42:07;0.43;;;0.43;;
62543;SDS011;48597;49.030;1.822;2023-05-09T13:44:32;0.40;;;0.40;;
62543;SDS011;48597;49.030;1.822;2023-05-09T13:46:57;0.47;;;0.47;;
62543;SDS011;48597;49.030;1.822;2023-05-09T13:49:24;0.47;;;0.47;;
62543;SDS011;48597;49.030;1.822;2023-05-09T13:51:50;1.00;;;0.50;;
62543;SDS011;48597;49.030;1.822;2023-05-09T13:54:15;0.50;;;0.50;;
62543;SDS011;48597;49.030;1.822;2023-05-09T13:56:43;0.40;;;0.40;;
62543;SDS011;48597;49.030;1.822;2023-05-09T13:59:09;0.40;;;0.40;;
62543;SDS011;48597;49.030;1.822;2023-05-09T14:01:34;0.40;;;0.40;;
62543;SDS011;48597;49.030;1.822;2023-05-09T14:04:00;0.52;;;0.40;;
62543;SDS011;48597;49.030;1.822;2023-05-09T14:06:26;0.40;;;0.40;;
62543;SDS011;48597;49.030;1.822;2023-05-09T14:08:52;0.40;;;0.40;;
62543;SDS011;48597;49.030;1.822;2023-05-09T14:11:19;0.30;;;0.30;;
62543;SDS011;48597;49.030;1.822;2023-05-09T14:13:45;0.30;;;0.30;;
62543;SDS011;48597;49.030;1.822;2023-05-09T14:16:10;0.55;;;0.52;;
62543;SDS011;48597;49.030;1.822;2023-05-09T14:18:36;0.40;;;0.40;;
62543;SDS011;48597;49.030;1.822;2023-05-09T14:21:01;0.57;;;0.50;;
62543;SDS011;48597;49.030;1.822;2023-05-09T14:23:27;1.08;;;0.57;;
62543;SDS011;48597;49.030;1.822;2023-05-09T14:25:52;0.40;;;0.40;;
62543;SDS011;48597;49.030;1.822;2023-05-09T14:28:17;0.52;;;0.40;;
62543;SDS011;48597;49.030;1.822;2023-05-09T14:30:43;2.35;;;0.60;;
62543;SDS011;48597;49.030;1.822;2023-05-09T14:33:08;0.40;;;0.40;;
62543;SDS011;48597;49.030;1.822;2023-05-09T14:35:33;0.55;;;0.55;;
62543;SDS011;48597;49.030;1.822;2023-05-09T14:37:59;0.47;;;0.43;;
62543;SDS011;48597;49.030;1.822;2023-05-09T14:40:25;1.98;;;0.60;;
62543;SDS011;48597;49.030;1.822;2023-05-09T14:42:56;0.55;;;0.55;;
62543;SDS011;48597;49.030;1.822;2023-05-09T14:45:23;0.80;;;0.55;;
62543;SDS011;48597;49.030;1.822;2023-05-09T14:47:48;1.77;;;0.60;;
62543;SDS011;48597;49.030;1.822;2023-05-09T14:50:14;0.70;;;0.70;;
62543;SDS011;48597;49.030;1.822;2023-05-09T14:52:40;0.60;;;0.60;;
62543;SDS011;48597;49.030;1.822;2023-05-09T14:55:06;0.50;;;0.50;;
62543;SDS011;48597;49.030;1.822;2023-05-09T14:57:32;0.60;;;0.60;;
62543;SDS011;48597;49.030;1.822;2023-05-09T14:59:57;1.05;;;0.60;;
62543;SDS011;48597;49.030;1.822;2023-05-09T15:02:23;1.05;;;0.60;;
62543;SDS011;48597;49.030;1.822;2023-05-09T15:04:48;0.77;;;0.60;;
62543;SDS011;48597;49.030;1.822;2023-05-09T15:07:14;1.23;;;0.68;;